Time;durP1;ratioP1;P1;durP2;ratioP2;P2;SDS_P1;SDS_P2;PMS_P1;PMS_P2;Temp;Humidity;BMP_temperature;BMP_pressure;BME280_temperature;BME280_humidity;BME280_pressure;Samples;Min_cycle;Max_cycle;Signal;HPM_P1;HPM_P2
2021/05/16 00:02:18;;;;;;;4.47;1.65;;;;;;;;;;5110307;28;20555;-70
2021/05/16 00:06:36;;;;;;;3.45;1.40;;;;;;;;;;5172201;27;20321;-71
2021/05/16 00:09:02;;;;;;;1.95;0.98;;;;;;;;;;5151933;27;20058;-71
2021/05/16 00:11:28;;;;;;;2.90;1.50;;;;;;;;;;5133163;27;20023;-71
2021/05/16 00:14:51;;;;;;;4.60;2.00;;;;;;;;;;5172675;27;20113;-70
2021/05/16 00:17:17;;;;;;;3.83;1.85;;;;;;;;;;5151943;27;20057;-70
2021/05/16 00:19:45;;;;;;;6.30;2.22;;;;;;;;;;5151155;27;20019;-71
2021/05/16 00:23:30;;;;;;;5.53;2.15;;;;;;;;;;5069940;28;20884;-70
2021/05/16 00:25:56;;;;;;;5.05;2.65;;;;;;;;;;5069926;28;20358;-70
2021/05/16 00:28:23;;;;;;;5.38;1.88;;;;;;;;;;5069553;28;20581;-70
2021/05/16 00:32:01;;;;;;;9.57;2.70;;;;;;;;;;5111013;27;20380;-70
2021/05/16 00:34:27;;;;;;;3.25;1.95;;;;;;;;;;5110126;28;20357;-71
2021/05/16 00:36:53;;;;;;;4.85;2.10;;;;;;;;;;5110469;28;20027;-71
2021/05/16 00:39:19;;;;;;;6.45;2.13;;;;;;;;;;5110438;28;20016;-70
2021/05/16 00:41:46;;;;;;;4.38;1.95;;;;;;;;;;5108734;28;20020;-72
2021/05/16 00:44:12;;;;;;;8.95;2.28;;;;;;;;;;5109115;28;20056;-70
2021/05/16 00:46:38;;;;;;;4.15;1.80;;;;;;;;;;5110465;28;20119;-71
2021/05/16 00:49:04;;;;;;;5.35;2.08;;;;;;;;;;5109798;28;20491;-70
2021/05/16 00:51:30;;;;;;;5.97;2.75;;;;;;;;;;5110130;28;20036;-70
2021/05/16 00:53:58;;;;;;;7.13;3.10;;;;;;;;;;5110103;28;20016;-71
2021/05/16 00:56:24;;;;;;;7.13;3.88;;;;;;;;;;5109657;28;20480;-71
2021/05/16 00:58:50;;;;;;;9.40;3.72;;;;;;;;;;5110057;28;20034;-71
2021/05/16 01:01:19;;;;;;;9.02;3.42;;;;;;;;;;5108606;28;20154;-70
2021/05/16 01:03:45;;;;;;;7.05;3.25;;;;;;;;;;5109538;28;20019;-70
2021/05/16 01:06:11;;;;;;;9.77;3.47;;;;;;;;;;5110103;28;20520;-70
2021/05/16 01:08:37;;;;;;;8.48;3.55;;;;;;;;;;5108159;28;20047;-71
2021/05/16 01:11:04;;;;;;;7.80;3.05;;;;;;;;;;5109723;28;20035;-70
2021/05/16 01:13:30;;;;;;;8.10;2.97;;;;;;;;;;5109740;28;20069;-70
2021/05/16 01:15:56;;;;;;;8.00;3.50;;;;;;;;;;5109300;28;20028;-70
2021/05/16 01:18:23;;;;;;;10.15;3.40;;;;;;;;;;5109639;28;20043;-70
2021/05/16 01:20:50;;;;;;;9.27;3.83;;;;;;;;;;5109601;28;20024;-70
2021/05/16 01:23:20;;;;;;;7.78;3.50;;;;;;;;;;5109318;28;20027;-70
2021/05/16 01:25:48;;;;;;;7.30;3.65;;;;;;;;;;5109801;28;20024;-70
2021/05/16 01:28:16;;;;;;;9.00;4.10;;;;;;;;;;5108130;28;20020;-70
2021/05/16 01:30:43;;;;;;;7.95;3.25;;;;;;;;;;5108764;28;20142;-70
2021/05/16 01:33:09;;;;;;;6.55;3.45;;;;;;;;;;5109392;28;20016;-70
2021/05/16 01:35:36;;;;;;;7.35;3.55;;;;;;;;;;5109326;28;20488;-70
2021/05/16 01:38:03;;;;;;;8.05;2.80;;;;;;;;;;5107561;28;20480;-70
2021/05/16 01:40:29;;;;;;;6.82;3.38;;;;;;;;;;5109233;28;20107;-70
2021/05/16 01:42:56;;;;;;;6.30;3.22;;;;;;;;;;5098128;28;20138;-70
2021/05/16 01:45:24;;;;;;;6.72;3.13;;;;;;;;;;5095344;28;20028;-70
2021/05/16 01:47:54;;;;;;;7.88;3.42;;;;;;;;;;5094307;28;20031;-70
2021/05/16 01:50:22;;;;;;;7.97;3.05;;;;;;;;;;5095297;28;20028;-69
2021/05/16 01:52:48;;;;;;;7.57;3.05;;;;;;;;;;5095019;28;20035;-70
2021/05/16 01:55:15;;;;;;;5.97;2.90;;;;;;;;;;5095289;28;20030;-70
2021/05/16 01:57:41;;;;;;;5.22;2.45;;;;;;;;;;5095312;28;20369;-71
2021/05/16 02:00:12;;;;;;;5.80;2.63;;;;;;;;;;5094812;28;20032;-71
2021/05/16 02:02:39;;;;;;;8.48;2.92;;;;;;;;;;5095227;28;20039;-71
2021/05/16 02:05:08;;;;;;;6.95;2.58;;;;;;;;;;5094952;28;20024;-71
2021/05/16 02:07:35;;;;;;;6.45;2.80;;;;;;;;;;5094041;28;20099;-72
2021/05/16 02:10:02;;;;;;;9.40;3.05;;;;;;;;;;5095008;28;20062;-71
2021/05/16 02:12:28;;;;;;;7.82;3.55;;;;;;;;;;5094705;28;20032;-71
2021/05/16 02:14:54;;;;;;;6.82;3.28;;;;;;;;;;5094985;28;20518;-71
2021/05/16 02:17:20;;;;;;;6.72;3.05;;;;;;;;;;5094857;28;20031;-71
2021/05/16 02:19:46;;;;;;;5.63;2.53;;;;;;;;;;5094560;28;20096;-71
2021/05/16 02:22:14;;;;;;;6.45;3.15;;;;;;;;;;5094917;28;20073;-71
2021/05/16 02:24:43;;;;;;;7.82;3.35;;;;;;;;;;5094901;28;20025;-71
2021/05/16 02:27:09;;;;;;;9.10;3.88;;;;;;;;;;5094560;28;20357;-71
2021/05/16 02:29:35;;;;;;;7.43;3.35;;;;;;;;;;5094572;28;20020;-70
2021/05/16 02:32:01;;;;;;;13.52;4.75;;;;;;;;;;5094701;28;20440;-71
2021/05/16 02:34:27;;;;;;;6.68;3.10;;;;;;;;;;5094289;28;20103;-70
2021/05/16 02:36:54;;;;;;;6.80;3.08;;;;;;;;;;5094584;28;20020;-71
2021/05/16 02:39:20;;;;;;;6.30;3.25;;;;;;;;;;5094511;28;20411;-71
2021/05/16 02:41:46;;;;;;;8.13;3.17;;;;;;;;;;5094177;28;20024;-72
2021/05/16 02:44:13;;;;;;;8.50;3.50;;;;;;;;;;5093270;28;20024;-71
2021/05/16 02:46:39;;;;;;;5.90;2.63;;;;;;;;;;5093392;28;20115;-71
2021/05/16 02:49:05;;;;;;;5.80;2.60;;;;;;;;;;5094038;28;20028;-71
2021/05/16 02:51:32;;;;;;;6.03;2.72;;;;;;;;;;5094257;28;20047;-72
2021/05/16 02:53:58;;;;;;;6.65;2.70;;;;;;;;;;5093274;28;20114;-71
2021/05/16 02:56:24;;;;;;;6.82;2.80;;;;;;;;;;5093805;28;20032;-71
2021/05/16 02:58:50;;;;;;;6.78;3.03;;;;;;;;;;5092909;28;20468;-71
2021/05/16 03:01:16;;;;;;;6.22;3.25;;;;;;;;;;5093804;28;20063;-71
2021/05/16 03:03:43;;;;;;;10.38;2.83;;;;;;;;;;5094047;28;20032;-71
2021/05/16 03:06:09;;;;;;;6.10;2.33;;;;;;;;;;5094110;28;20027;-71
2021/05/16 03:08:35;;;;;;;4.38;2.20;;;;;;;;;;5093777;28;20507;-71
2021/05/16 03:11:01;;;;;;;7.15;2.80;;;;;;;;;;5092555;28;20043;-71
2021/05/16 03:13:27;;;;;;;8.45;2.70;;;;;;;;;;5092580;28;20020;-71
2021/05/16 03:15:54;;;;;;;6.30;3.13;;;;;;;;;;5091993;28;20020;-71
2021/05/16 03:18:20;;;;;;;7.40;3.08;;;;;;;;;;5093881;28;20541;-71
2021/05/16 03:20:46;;;;;;;5.95;3.25;;;;;;;;;;5093719;28;20024;-72
2021/05/16 03:23:12;;;;;;;8.18;3.83;;;;;;;;;;5093355;28;20020;-71
2021/05/16 03:25:39;;;;;;;7.72;3.10;;;;;;;;;;5092671;28;20111;-71
2021/05/16 03:28:06;;;;;;;9.98;3.25;;;;;;;;;;5093807;28;20016;-71
2021/05/16 03:30:32;;;;;;;8.30;3.08;;;;;;;;;;5093052;28;20043;-72
2021/05/16 03:32:58;;;;;;;10.05;2.80;;;;;;;;;;5092165;28;20020;-71
2021/05/16 03:35:24;;;;;;;6.43;3.22;;;;;;;;;;5093446;28;20027;-69
2021/05/16 03:37:51;;;;;;;5.78;2.97;;;;;;;;;;5091781;28;20073;-70
2021/05/16 03:40:17;;;;;;;7.53;2.95;;;;;;;;;;5093373;28;20021;-70
2021/05/16 03:42:43;;;;;;;7.68;3.35;;;;;;;;;;5093290;28;20048;-70
2021/05/16 03:45:10;;;;;;;8.65;4.40;;;;;;;;;;5092893;28;20380;-70
2021/05/16 03:47:38;;;;;;;8.38;3.88;;;;;;;;;;5093404;28;20023;-70
2021/05/16 03:50:05;;;;;;;11.45;4.78;;;;;;;;;;5093186;28;20419;-70
2021/05/16 03:52:31;;;;;;;12.15;4.93;;;;;;;;;;5092794;28;20024;-70
2021/05/16 03:54:57;;;;;;;14.75;5.15;;;;;;;;;;5093056;28;20024;-71
2021/05/16 03:57:24;;;;;;;9.38;3.80;;;;;;;;;;5092684;28;20503;-71
2021/05/16 03:59:51;;;;;;;10.43;4.45;;;;;;;;;;5091624;28;20023;-71
2021/05/16 04:02:17;;;;;;;8.75;4.43;;;;;;;;;;5093078;28;20031;-71
2021/05/16 04:04:44;;;;;;;9.85;4.30;;;;;;;;;;5092305;28;20082;-70
2021/05/16 04:07:10;;;;;;;7.70;3.42;;;;;;;;;;5091762;28;20462;-71
2021/05/16 04:09:36;;;;;;;8.10;3.80;;;;;;;;;;5092947;28;20028;-71
2021/05/16 04:12:03;;;;;;;9.40;3.90;;;;;;;;;;5092384;28;20028;-71
2021/05/16 04:14:29;;;;;;;9.60;3.67;;;;;;;;;;5092787;28;20023;-71
2021/05/16 04:16:56;;;;;;;11.32;3.83;;;;;;;;;;5091620;28;20320;-71
2021/05/16 04:19:22;;;;;;;10.27;3.75;;;;;;;;;;5092285;28;20031;-71
2021/05/16 04:21:48;;;;;;;7.38;3.50;;;;;;;;;;5092770;28;20016;-71
2021/05/16 04:24:15;;;;;;;9.32;3.92;;;;;;;;;;5092818;28;20024;-71
2021/05/16 04:26:41;;;;;;;8.32;3.17;;;;;;;;;;5091090;28;20060;-71
2021/05/16 04:29:07;;;;;;;8.13;3.38;;;;;;;;;;5092962;28;20051;-71
2021/05/16 04:31:33;;;;;;;6.28;2.90;;;;;;;;;;5092545;28;20133;-71
2021/05/16 04:34:00;;;;;;;7.45;3.42;;;;;;;;;;5092334;28;20055;-71
2021/05/16 04:36:26;;;;;;;9.05;3.85;;;;;;;;;;5092625;28;20376;-71
2021/05/16 04:38:53;;;;;;;9.07;3.92;;;;;;;;;;5092614;28;20021;-71
2021/05/16 04:41:20;;;;;;;5.97;3.22;;;;;;;;;;5092252;28;20032;-71
2021/05/16 04:43:46;;;;;;;6.88;3.90;;;;;;;;;;5092598;28;20024;-71
2021/05/16 04:46:12;;;;;;;7.90;3.58;;;;;;;;;;5092576;28;20027;-71
2021/05/16 04:48:39;;;;;;;9.18;3.25;;;;;;;;;;5092336;28;20027;-70
2021/05/16 04:51:05;;;;;;;5.85;2.67;;;;;;;;;;5091220;28;20043;-70
2021/05/16 04:55:07;;;;;;;5.15;3.00;;;;;;;;;;5110136;27;20775;-71
2021/05/16 04:59:29;;;;;;;5.50;2.78;;;;;;;;;;5110500;27;20384;-70
2021/05/16 05:02:55;;;;;;;8.13;3.03;;;;;;;;;;5109997;27;20466;-70
2021/05/16 05:05:22;;;;;;;7.70;3.97;;;;;;;;;;5110553;28;20050;-70
2021/05/16 05:08:56;;;;;;;5.97;2.53;;;;;;;;;;5110244;27;20458;-69
2021/05/16 05:11:22;;;;;;;4.10;2.03;;;;;;;;;;5109243;28;20036;-70
2021/05/16 05:13:49;;;;;;;5.32;2.85;;;;;;;;;;5109133;28;20024;-69
2021/05/16 05:16:45;;;;;;;5.15;2.65;;;;;;;;;;5110121;27;20112;-69
2021/05/16 05:19:11;;;;;;;4.82;2.38;;;;;;;;;;5109092;28;20110;-70
2021/05/16 05:25:13;;;;;;;6.30;3.53;;;;;;;;;;5110493;27;20392;-70
2021/05/16 05:28:22;;;;;;;5.47;2.92;;;;;;;;;;5110553;27;20457;-69
2021/05/16 05:31:53;;;;;;;6.45;3.33;;;;;;;;;;5114408;27;1155588;-70
2021/05/16 05:38:50;;;;;;;7.57;3.63;;;;;;;;;;5110359;27;20467;-70
2021/05/16 05:41:16;;;;;;;6.65;3.20;;;;;;;;;;5109121;28;20023;-70
2021/05/16 05:43:42;;;;;;;7.50;3.30;;;;;;;;;;5109982;28;20020;-69
2021/05/16 05:47:42;;;;;;;7.07;3.20;;;;;;;;;;5110461;27;20414;-69
2021/05/16 05:51:11;;;;;;;7.20;3.65;;;;;;;;;;5069418;28;20383;-70
2021/05/16 05:54:38;;;;;;;9.48;4.35;;;;;;;;;;5110353;27;20975;-70
2021/05/16 05:58:49;;;;;;;8.93;4.35;;;;;;;;;;5069410;28;20387;-70
2021/05/16 06:01:16;;;;;;;8.88;4.20;;;;;;;;;;5068400;28;20135;-69
2021/05/16 06:03:43;;;;;;;6.43;3.22;;;;;;;;;;5069731;28;20078;-70
2021/05/16 06:06:09;;;;;;;7.45;3.20;;;;;;;;;;5068286;28;20029;-70
2021/05/16 06:08:35;;;;;;;4.75;2.97;;;;;;;;;;5068499;28;20029;-70
2021/05/16 06:12:20;;;;;;;7.22;3.28;;;;;;;;;;5109923;27;20139;-70
2021/05/16 06:14:48;;;;;;;6.82;2.97;;;;;;;;;;5110478;28;20395;-70
2021/05/16 06:17:15;;;;;;;6.13;2.75;;;;;;;;;;5110343;28;20438;-70
2021/05/16 06:19:41;;;;;;;5.82;3.20;;;;;;;;;;5108656;28;20058;-71
2021/05/16 06:24:14;;;;;;;6.00;2.80;;;;;;;;;;5110370;27;20400;-69
2021/05/16 06:26:15;;;;;;;7.50;1.92;;;;;;;;;;5106005;28;20043;-71
2021/05/16 06:28:41;;;;;;;4.95;2.33;;;;;;;;;;5109165;28;20049;-71
2021/05/16 06:31:07;;;;;;;4.28;1.90;;;;;;;;;;5109024;28;20083;-71
2021/05/16 06:34:33;;;;;;;5.45;2.65;;;;;;;;;;5110554;27;20434;-71
2021/05/16 06:38:04;;;;;;;4.13;1.98;;;;;;;;;;5130891;27;20464;-70
2021/05/16 06:42:05;;;;;;;6.05;2.30;;;;;;;;;;5110505;27;20385;-70
2021/05/16 06:44:31;;;;;;;7.78;2.60;;;;;;;;;;5110483;28;20020;-70
2021/05/16 06:46:58;;;;;;;4.60;1.95;;;;;;;;;;5110168;28;20103;-70
2021/05/16 06:49:24;;;;;;;4.43;1.95;;;;;;;;;;5109090;28;20400;-70
2021/05/16 06:54:02;;;;;;;2.65;1.50;;;;;;;;;;5110034;27;20446;-71
2021/05/16 06:56:28;;;;;;;3.90;1.80;;;;;;;;;;5110338;28;20028;-71
2021/05/16 07:00:20;;;;;;;5.70;1.35;;;;;;;;;;5110028;27;20385;-71
2021/05/16 07:04:04;;;;;;;2.10;0.88;;;;;;;;;;5110462;27;20377;-70
2021/05/16 07:06:30;;;;;;;1.80;1.08;;;;;;;;;;5110909;28;20019;-71
2021/05/16 07:08:56;;;;;;;3.30;0.95;;;;;;;;;;5110168;28;20357;-73
2021/05/16 07:11:22;;;;;;;3.10;1.05;;;;;;;;;;5110407;28;20107;-72
2021/05/16 07:13:49;;;;;;;1.27;1.08;;;;;;;;;;5110301;28;20401;-71
2021/05/16 07:16:27;;;;;;;1.33;0.70;;;;;;;;;;5110064;27;20446;-72
2021/05/16 07:19:05;;;;;;;2.10;0.90;;;;;;;;;;5110484;27;20434;-70
2021/05/16 07:21:31;;;;;;;1.67;0.95;;;;;;;;;;5110062;28;20027;-70
2021/05/16 07:23:57;;;;;;;4.20;1.10;;;;;;;;;;5109068;28;20097;-72
2021/05/16 07:28:08;;;;;;;2.83;0.60;;;;;;;;;;5110669;27;20434;-71
2021/05/16 07:30:53;;;;;;;1.42;0.80;;;;;;;;;;5110571;27;20385;-70
2021/05/16 07:34:11;;;;;;;1.42;0.63;;;;;;;;;;5110423;27;20384;-72
2021/05/16 07:36:38;;;;;;;4.60;0.88;;;;;;;;;;5110084;28;20023;-71
2021/05/16 07:39:04;;;;;;;1.48;0.70;;;;;;;;;;5109441;28;20023;-71
2021/05/16 07:41:30;;;;;;;5.95;0.85;;;;;;;;;;5109425;28;20044;-71
2021/05/16 07:43:56;;;;;;;2.00;0.80;;;;;;;;;;5110379;28;20095;-72
2021/05/16 07:48:00;;;;;;;3.58;0.90;;;;;;;;;;5090945;27;20378;-72
2021/05/16 07:50:26;;;;;;;1.85;0.77;;;;;;;;;;5089739;28;20099;-71
2021/05/16 07:52:52;;;;;;;4.80;0.75;;;;;;;;;;5088736;28;20111;-71
2021/05/16 07:55:18;;;;;;;1.25;0.65;;;;;;;;;;5088758;28;20020;-71
2021/05/16 07:57:45;;;;;;;3.40;0.80;;;;;;;;;;5088300;28;20484;-72
2021/05/16 08:00:31;;;;;;;2.85;0.85;;;;;;;;;;5069908;28;20360;-71
2021/05/16 08:02:57;;;;;;;4.97;0.90;;;;;;;;;;5068656;28;20036;-71
2021/05/16 08:07:57;;;;;;;3.78;1.40;;;;;;;;;;5111219;27;20411;-71
2021/05/16 08:11:26;;;;;;;2.45;1.23;;;;;;;;;;5110366;27;20384;-72
2021/05/16 08:14:29;;;;;;;2.78;1.00;;;;;;;;;;5110475;27;20955;-72
2021/05/16 08:16:55;;;;;;;4.40;1.02;;;;;;;;;;5110468;28;20016;-72
2021/05/16 08:19:22;;;;;;;2.47;0.40;;;;;;;;;;5108741;28;20471;-72
2021/05/16 08:21:48;;;;;;;1.90;0.77;;;;;;;;;;5110305;28;20488;-72
2021/05/16 08:24:15;;;;;;;3.45;0.50;;;;;;;;;;5110250;28;20020;-71
2021/05/16 08:26:42;;;;;;;1.52;0.73;;;;;;;;;;5108904;28;20061;-72
2021/05/16 08:30:57;;;;;;;0.98;0.50;;;;;;;;;;5130955;27;20161;-72
2021/05/16 08:33:23;;;;;;;1.48;0.68;;;;;;;;;;5109946;28;20477;-72
2021/05/16 08:37:14;;;;;;;1.55;0.55;;;;;;;;;;5110322;27;20365;-71
2021/05/16 08:39:41;;;;;;;1.58;0.68;;;;;;;;;;5109995;28;20035;-71
2021/05/16 08:42:07;;;;;;;1.65;0.98;;;;;;;;;;5109034;28;20020;-71
2021/05/16 08:44:33;;;;;;;5.10;0.73;;;;;;;;;;5109046;28;20417;-71
2021/05/16 08:47:23;;;;;;;2.17;0.50;;;;;;;;;;5110215;27;20430;-70
2021/05/16 08:49:50;;;;;;;2.17;0.63;;;;;;;;;;5109166;28;20051;-71
2021/05/16 08:52:16;;;;;;;1.70;0.50;;;;;;;;;;5109312;28;20024;-72
2021/05/16 08:54:45;;;;;;;2.58;0.90;;;;;;;;;;5109963;28;20030;-72
2021/05/16 08:57:11;;;;;;;1.63;0.60;;;;;;;;;;5110258;28;20073;-72
2021/05/16 08:59:57;;;;;;;1.80;0.70;;;;;;;;;;5110252;28;20091;-72
2021/05/16 09:02:23;;;;;;;0.52;0.38;;;;;;;;;;5108707;28;20488;-71
2021/05/16 09:04:50;;;;;;;0.30;0.30;;;;;;;;;;5108828;28;20047;-72
2021/05/16 09:07:16;;;;;;;1.95;0.60;;;;;;;;;;5109660;28;20035;-72
2021/05/16 09:09:42;;;;;;;2.40;0.60;;;;;;;;;;5110271;28;20023;-72
2021/05/16 09:12:14;;;;;;;3.97;0.63;;;;;;;;;;5110012;28;20024;-73
2021/05/16 09:14:50;;;;;;;0.77;0.50;;;;;;;;;;5109440;28;20099;-72
2021/05/16 09:17:32;;;;;;;1.45;0.47;;;;;;;;;;5108509;28;20016;-72
2021/05/16 09:20:32;;;;;;;0.88;0.45;;;;;;;;;;5110292;27;20381;-72
2021/05/16 09:22:58;;;;;;;1.35;0.30;;;;;;;;;;5110017;28;20024;-72
2021/05/16 09:25:26;;;;;;;1.60;0.50;;;;;;;;;;5110313;28;20127;-71
2021/05/16 09:27:57;;;;;;;1.38;0.45;;;;;;;;;;5110501;28;20057;-72
2021/05/16 09:30:24;;;;;;;1.30;0.50;;;;;;;;;;5110131;28;20035;-72
2021/05/16 09:33:37;;;;;;;1.75;0.60;;;;;;;;;;5110229;27;20461;-73
2021/05/16 09:36:05;;;;;;;2.20;0.80;;;;;;;;;;5108663;28;20024;-72
2021/05/16 09:38:33;;;;;;;1.40;0.70;;;;;;;;;;5109024;28;20024;-72
2021/05/16 09:40:59;;;;;;;1.00;0.50;;;;;;;;;;5110371;28;20024;-73
2021/05/16 09:43:32;;;;;;;0.75;0.60;;;;;;;;;;5109925;28;20027;-72
2021/05/16 09:46:00;;;;;;;;;;;;;;;;;;5109254;28;20051;-73
2021/05/16 09:48:31;;;;;;;3.47;0.77;;;;;;;;;;5110326;28;19904;-72
2021/05/16 09:51:11;;;;;;;1.33;0.63;;;;;;;;;;5108763;28;20054;-70
2021/05/16 09:53:53;;;;;;;2.00;0.60;;;;;;;;;;5110086;28;20028;-72
2021/05/16 09:56:22;;;;;;;2.30;0.50;;;;;;;;;;5109609;28;20095;-72
2021/05/16 09:59:34;;;;;;;1.50;0.50;;;;;;;;;;5130876;27;20579;-71
2021/05/16 10:02:00;;;;;;;0.85;0.35;;;;;;;;;;5092474;28;20390;-71
2021/05/16 10:04:27;;;;;;;3.42;0.50;;;;;;;;;;5091813;28;20089;-71
2021/05/16 10:06:53;;;;;;;0.80;0.50;;;;;;;;;;5110432;28;20106;-71
2021/05/16 10:09:19;;;;;;;1.95;0.68;;;;;;;;;;5092161;28;20046;-71
2021/05/16 10:13:51;;;;;;;4.97;1.13;;;;;;;;;;5110432;27;20381;-72
2021/05/16 10:16:18;;;;;;;2.08;0.85;;;;;;;;;;5110415;28;20484;-72
2021/05/16 10:18:46;;;;;;;0.88;0.50;;;;;;;;;;5108527;28;20552;-72
2021/05/16 10:21:12;;;;;;;1.10;0.50;;;;;;;;;;5109103;28;20035;-71
2021/05/16 10:23:39;;;;;;;2.33;0.73;;;;;;;;;;5108972;28;20028;-72
2021/05/16 10:26:18;;;;;;;1.50;0.60;;;;;;;;;;5109916;28;20023;-71
2021/05/16 10:28:54;;;;;;;1.63;0.50;;;;;;;;;;5110297;28;20079;-72
2021/05/16 10:31:41;;;;;;;1.35;0.40;;;;;;;;;;5110034;28;20051;-73
2021/05/16 10:34:25;;;;;;;0.63;0.30;;;;;;;;;;5109965;28;20442;-72
2021/05/16 10:36:55;;;;;;;2.00;0.40;;;;;;;;;;5108761;28;20028;-73
2021/05/16 10:39:40;;;;;;;2.13;0.60;;;;;;;;;;5108634;28;20019;-72
2021/05/16 10:42:23;;;;;;;2.60;0.40;;;;;;;;;;5109881;28;20055;-72
2021/05/16 10:45:00;;;;;;;0.30;0.22;;;;;;;;;;5108734;28;20073;-72
2021/05/16 10:47:48;;;;;;;3.30;0.60;;;;;;;;;;5109542;28;20028;-72
2021/05/16 10:50:26;;;;;;;1.55;0.60;;;;;;;;;;5109909;28;20482;-71
2021/05/16 10:52:59;;;;;;;0.55;0.40;;;;;;;;;;5107971;28;20043;-72
2021/05/16 10:55:39;;;;;;;0.60;0.40;;;;;;;;;;5109685;28;20366;-72
2021/05/16 10:58:05;;;;;;;1.58;1.00;;;;;;;;;;5109602;28;20053;-71
2021/05/16 11:00:32;;;;;;;0.52;0.30;;;;;;;;;;5108212;28;20384;-71
2021/05/16 11:03:12;;;;;;;4.63;0.60;;;;;;;;;;5109600;28;20016;-71
2021/05/16 11:05:47;;;;;;;19.48;1.17;;;;;;;;;;5109503;28;20020;-71
2021/05/16 11:08:16;;;;;;;1.85;0.55;;;;;;;;;;5109530;28;20034;-71
2021/05/16 11:10:43;;;;;;;1.13;0.32;;;;;;;;;;5109369;28;20024;-72
2021/05/16 11:13:21;;;;;;;1.55;0.50;;;;;;;;;;5107722;28;20079;-72
2021/05/16 11:15:47;;;;;;;0.85;0.47;;;;;;;;;;5107590;28;20020;-72
2021/05/16 11:18:19;;;;;;;1.42;0.77;;;;;;;;;;5109280;28;20035;-71
2021/05/16 11:20:52;;;;;;;1.05;0.73;;;;;;;;;;5108881;28;20388;-72
2021/05/16 11:23:25;;;;;;;2.28;0.90;;;;;;;;;;5104426;28;20099;-72
2021/05/16 11:26:01;;;;;;;0.93;0.40;;;;;;;;;;5095703;28;20107;-72
2021/05/16 11:28:28;;;;;;;2.53;0.88;;;;;;;;;;5093940;28;20707;-73
2021/05/16 11:33:08;;;;;;;0.57;0.32;;;;;;;;;;5110366;27;20381;-72
2021/05/16 11:35:38;;;;;;;0.90;0.40;;;;;;;;;;5109066;28;20028;-72
2021/05/16 11:38:04;;;;;;;3.22;0.70;;;;;;;;;;5110271;28;20399;-72
2021/05/16 11:40:32;;;;;;;0.40;0.38;;;;;;;;;;5108789;28;20028;-72
2021/05/16 11:43:07;;;;;;;2.63;0.57;;;;;;;;;;5109838;28;20024;-72
2021/05/16 11:45:36;;;;;;;1.75;0.40;;;;;;;;;;5110312;28;20027;-73
2021/05/16 11:48:02;;;;;;;0.85;0.60;;;;;;;;;;5110401;28;20360;-71
2021/05/16 11:50:40;;;;;;;2.58;1.20;;;;;;;;;;5109764;28;20016;-72
2021/05/16 11:53:06;;;;;;;0.90;0.45;;;;;;;;;;5109897;28;20036;-73
2021/05/16 11:55:33;;;;;;;1.63;0.75;;;;;;;;;;5110010;28;20130;-71
2021/05/16 11:58:00;;;;;;;0.98;0.60;;;;;;;;;;5109528;28;20032;-71
2021/05/16 12:00:29;;;;;;;3.72;1.33;;;;;;;;;;5109775;28;20090;-72
2021/05/16 12:03:06;;;;;;;2.10;0.43;;;;;;;;;;5109242;28;20027;-72
2021/05/16 12:05:32;;;;;;;1.65;0.57;;;;;;;;;;5109612;28;20049;-72
2021/05/16 12:07:59;;;;;;;1.27;0.50;;;;;;;;;;5108445;28;20138;-72
2021/05/16 12:10:25;;;;;;;0.85;0.40;;;;;;;;;;5109728;28;20072;-71
2021/05/16 12:12:51;;;;;;;2.53;0.70;;;;;;;;;;5109757;28;20032;-71
2021/05/16 12:15:24;;;;;;;0.90;0.40;;;;;;;;;;5109346;28;20028;-71
2021/05/16 12:17:50;;;;;;;1.23;0.65;;;;;;;;;;5109030;28;20028;-71
2021/05/16 12:20:24;;;;;;;1.23;0.47;;;;;;;;;;5107942;28;20047;-71
2021/05/16 12:22:50;;;;;;;1.38;0.70;;;;;;;;;;5109388;28;20103;-71
2021/05/16 12:25:16;;;;;;;2.67;0.70;;;;;;;;;;5109079;28;20166;-71
2021/05/16 12:27:43;;;;;;;4.75;0.93;;;;;;;;;;5109649;28;20414;-71
2021/05/16 12:30:09;;;;;;;0.75;0.38;;;;;;;;;;5109507;28;20536;-71
2021/05/16 12:32:35;;;;;;;0.90;0.35;;;;;;;;;;5107383;28;20102;-73
2021/05/16 12:35:02;;;;;;;0.77;0.50;;;;;;;;;;5109263;28;20378;-72
2021/05/16 12:37:29;;;;;;;3.13;0.35;;;;;;;;;;5107888;28;20154;-72
2021/05/16 12:39:58;;;;;;;0.95;0.40;;;;;;;;;;5108767;28;20027;-72
2021/05/16 12:42:26;;;;;;;0.98;0.40;;;;;;;;;;5106196;28;20101;-72
2021/05/16 12:46:07;;;;;;;2.28;1.10;;;;;;;;;;5109964;27;20381;-71
2021/05/16 12:48:33;;;;;;;1.33;0.70;;;;;;;;;;5110676;28;20085;-71
2021/05/16 12:51:00;;;;;;;8.55;3.85;;;;;;;;;;5110349;28;20020;-71
2021/05/16 12:53:38;;;;;;;1.80;1.00;;;;;;;;;;5109972;28;20016;-71
2021/05/16 12:56:19;;;;;;;0.70;0.40;;;;;;;;;;5110325;28;20030;-71
2021/05/16 13:01:32;;;;;;;1.60;0.50;;;;;;;;;;5110193;28;20111;-72
2021/05/16 13:04:02;;;;;;;1.35;0.75;;;;;;;;;;5108722;28;20024;-71
2021/05/16 13:06:29;;;;;;;2.10;0.38;;;;;;;;;;5109691;28;20028;-71
2021/05/16 13:08:56;;;;;;;1.80;0.43;;;;;;;;;;5110177;28;20094;-73
2021/05/16 13:11:23;;;;;;;2.55;1.02;;;;;;;;;;5110097;28;20040;-70
2021/05/16 13:13:54;;;;;;;1.08;0.40;;;;;;;;;;5109500;28;20376;-71
2021/05/16 13:17:30;;;;;;;2.65;1.50;;;;;;;;;;5110421;27;20426;-71
2021/05/16 13:19:56;;;;;;;2.60;1.45;;;;;;;;;;5110374;28;20357;-71
2021/05/16 13:22:42;;;;;;;4.25;1.70;;;;;;;;;;5108460;28;20031;-71
2021/05/16 13:25:10;;;;;;;1.77;0.55;;;;;;;;;;5110250;28;20028;-71
2021/05/16 13:27:37;;;;;;;1.63;0.60;;;;;;;;;;5108763;28;20016;-71
2021/05/16 13:30:05;;;;;;;0.85;0.50;;;;;;;;;;5108911;28;20028;-71
2021/05/16 13:32:32;;;;;;;0.25;0.20;;;;;;;;;;5110224;28;20077;-72
2021/05/16 13:34:58;;;;;;;1.15;0.50;;;;;;;;;;5109670;28;20030;-72
2021/05/16 13:37:26;;;;;;;1.38;0.70;;;;;;;;;;5108690;28;20034;-72
2021/05/16 13:39:52;;;;;;;1.95;1.00;;;;;;;;;;5110073;28;20020;-73
2021/05/16 13:42:19;;;;;;;1.45;0.63;;;;;;;;;;5108339;28;20036;-72
2021/05/16 13:44:45;;;;;;;1.48;0.50;;;;;;;;;;5108596;28;20078;-72
2021/05/16 13:47:11;;;;;;;1.33;0.55;;;;;;;;;;5108841;28;20055;-72
2021/05/16 13:49:38;;;;;;;1.83;0.57;;;;;;;;;;5109630;28;20524;-72
2021/05/16 13:52:04;;;;;;;1.40;0.70;;;;;;;;;;5109694;28;20051;-72
2021/05/16 13:54:31;;;;;;;1.88;0.80;;;;;;;;;;5109770;28;20032;-72
2021/05/16 13:56:58;;;;;;;3.38;0.60;;;;;;;;;;5108003;28;20105;-72
2021/05/16 13:59:24;;;;;;;0.60;0.47;;;;;;;;;;5108484;28;20402;-72
2021/05/16 14:01:56;;;;;;;0.98;0.40;;;;;;;;;;5109745;28;20032;-72
2021/05/16 14:04:22;;;;;;;0.90;0.45;;;;;;;;;;5107949;28;20031;-72
2021/05/16 14:06:48;;;;;;;3.13;0.63;;;;;;;;;;5109798;28;20547;-72
2021/05/16 14:09:15;;;;;;;2.20;0.80;;;;;;;;;;5108373;28;20141;-72
2021/05/16 14:11:41;;;;;;;1.08;0.43;;;;;;;;;;5108976;28;20020;-72
2021/05/16 14:14:08;;;;;;;1.77;0.57;;;;;;;;;;5109402;28;20020;-72
2021/05/16 14:16:34;;;;;;;1.10;0.30;;;;;;;;;;5108653;28;20060;-72
2021/05/16 14:19:01;;;;;;;1.35;0.43;;;;;;;;;;5109328;28;20031;-71
2021/05/16 14:21:30;;;;;;;1.20;0.63;;;;;;;;;;5109154;28;20028;-71
2021/05/16 14:23:56;;;;;;;1.85;0.77;;;;;;;;;;5108838;28;20480;-71
2021/05/16 14:26:22;;;;;;;0.45;0.30;;;;;;;;;;5109275;28;20073;-71
2021/05/16 14:28:49;;;;;;;0.63;0.35;;;;;;;;;;5095369;28;20027;-71
2021/05/16 14:31:15;;;;;;;0.90;0.40;;;;;;;;;;5095166;28;20088;-71
2021/05/16 14:33:41;;;;;;;1.63;0.60;;;;;;;;;;5095422;28;20025;-72
2021/05/16 14:36:08;;;;;;;3.88;1.15;;;;;;;;;;5095028;28;20069;-72
2021/05/16 14:38:34;;;;;;;0.88;0.50;;;;;;;;;;5093751;28;20016;-71
2021/05/16 14:41:00;;;;;;;2.40;0.93;;;;;;;;;;5095375;28;20536;-71
2021/05/16 14:43:28;;;;;;;2.25;0.52;;;;;;;;;;5095315;28;20114;-71
2021/05/16 14:45:54;;;;;;;2.90;0.60;;;;;;;;;;5093588;28;20020;-72
2021/05/16 14:48:21;;;;;;;0.88;0.40;;;;;;;;;;5095380;28;20020;-73
2021/05/16 14:50:52;;;;;;;1.13;0.30;;;;;;;;;;5095244;28;20430;-72
2021/05/16 14:53:19;;;;;;;1.40;0.50;;;;;;;;;;5094730;28;20016;-72
2021/05/16 14:55:46;;;;;;;0.68;0.35;;;;;;;;;;5093937;28;20454;-72
2021/05/16 14:58:12;;;;;;;1.60;0.50;;;;;;;;;;5095057;28;20442;-72
2021/05/16 15:00:38;;;;;;;1.73;0.60;;;;;;;;;;5094485;28;20328;-72
2021/05/16 15:03:05;;;;;;;1.27;0.60;;;;;;;;;;5094893;28;20488;-72
2021/05/16 15:05:31;;;;;;;2.80;1.38;;;;;;;;;;5094815;28;20028;-72
2021/05/16 15:07:57;;;;;;;1.75;0.55;;;;;;;;;;5094663;28;20028;-72
2021/05/16 15:10:23;;;;;;;3.05;0.50;;;;;;;;;;5094894;28;20495;-74
2021/05/16 15:12:49;;;;;;;1.52;0.50;;;;;;;;;;5094387;28;20024;-73
2021/05/16 15:15:16;;;;;;;0.50;0.30;;;;;;;;;;5094414;28;20020;-74
2021/05/16 15:17:43;;;;;;;4.35;1.45;;;;;;;;;;5094742;28;20150;-71
2021/05/16 15:20:09;;;;;;;2.33;0.82;;;;;;;;;;5094144;28;20038;-71
2021/05/16 15:22:35;;;;;;;1.65;0.43;;;;;;;;;;5094554;28;20032;-71
2021/05/16 15:25:02;;;;;;;0.30;0.30;;;;;;;;;;5094523;28;20095;-72
2021/05/16 15:27:28;;;;;;;2.17;0.50;;;;;;;;;;5094206;28;20031;-72
2021/05/16 15:29:54;;;;;;;1.38;0.50;;;;;;;;;;5094577;28;20020;-72
2021/05/16 15:32:21;;;;;;;2.28;0.40;;;;;;;;;;5094384;28;20054;-72
2021/05/16 15:34:47;;;;;;;0.28;0.20;;;;;;;;;;5093897;28;20503;-72
2021/05/16 15:37:15;;;;;;;1.38;0.40;;;;;;;;;;5092839;28;20115;-72
2021/05/16 15:39:41;;;;;;;0.63;0.43;;;;;;;;;;5093166;28;20020;-72
2021/05/16 15:42:07;;;;;;;3.72;0.68;;;;;;;;;;5093727;28;20107;-72
2021/05/16 15:44:34;;;;;;;1.42;0.50;;;;;;;;;;5094136;28;20065;-72
2021/05/16 15:47:00;;;;;;;0.20;0.20;;;;;;;;;;5094192;28;20388;-72
2021/05/16 15:49:26;;;;;;;1.00;0.20;;;;;;;;;;5093868;28;20537;-70